createdAt,value
2018-04-30T00:01:22.000Z,98555
2018-04-30T00:03:22.000Z,98538
2018-04-30T00:05:22.000Z,98525
2018-04-30T00:07:22.000Z,98511
2018-04-30T00:09:22.000Z,98509
2018-04-30T00:11:22.000Z,98497
2018-04-30T00:13:22.000Z,98471
2018-04-30T00:15:22.000Z,98467
2018-04-30T00:16:22.000Z,98464
2018-04-30T00:18:22.000Z,98469
2018-04-30T00:20:22.000Z,98466
2018-04-30T00:22:22.000Z,98460
2018-04-30T00:24:22.000Z,98457
2018-04-30T00:26:22.000Z,98446
2018-04-30T00:27:22.000Z,98457
2018-04-30T00:29:07.000Z,98455
2018-04-30T00:30:22.000Z,98455
2018-04-30T00:32:22.000Z,98449
2018-04-30T00:33:22.000Z,98458
2018-04-30T00:35:22.000Z,98470
2018-04-30T00:37:07.000Z,98462
2018-04-30T00:38:22.000Z,98459
2018-04-30T00:39:22.000Z,98466
2018-04-30T00:41:22.000Z,98474
2018-04-30T00:43:07.000Z,98477
2018-04-30T00:44:22.000Z,98482
2018-04-30T00:46:22.000Z,98479
2018-04-30T00:48:22.000Z,98473
2018-04-30T00:49:22.000Z,98473
2018-04-30T00:51:22.000Z,98470
2018-04-30T00:53:07.000Z,98470
2018-04-30T00:54:22.000Z,98466
2018-04-30T00:55:22.000Z,98460
2018-04-30T00:56:22.000Z,98451
2018-04-30T00:57:22.000Z,98450
2018-04-30T00:59:22.000Z,98439
2018-04-30T01:00:22.000Z,98441
2018-04-30T01:02:22.000Z,98431
2018-04-30T01:04:22.000Z,98432
2018-04-30T01:05:22.000Z,98431
2018-04-30T01:07:22.000Z,98429
2018-04-30T01:08:22.000Z,98430
2018-04-30T01:09:22.000Z,98431
2018-04-30T01:11:22.000Z,98427
2018-04-30T01:13:22.000Z,98432
2018-04-30T01:15:22.000Z,98425
2018-04-30T01:16:22.000Z,98427
2018-04-30T01:18:22.000Z,98421
2018-04-30T01:19:22.000Z,98422
2018-04-30T01:20:22.000Z,98417
2018-04-30T01:22:22.000Z,98412
2018-04-30T01:24:22.000Z,98414
2018-04-30T01:26:22.000Z,98414
2018-04-30T01:27:22.000Z,98415
2018-04-30T01:29:07.000Z,98410
2018-04-30T01:30:22.000Z,98412
2018-04-30T01:31:22.000Z,98414
2018-04-30T01:33:22.000Z,98406
2018-04-30T01:35:22.000Z,98402
2018-04-30T01:36:22.000Z,98402
2018-04-30T01:38:22.000Z,98394
2018-04-30T01:40:22.000Z,98394
2018-04-30T01:42:22.000Z,98391
2018-04-30T01:43:22.000Z,98397
2018-04-30T01:44:22.000Z,98399
2018-04-30T01:46:22.000Z,98401
2018-04-30T01:48:07.000Z,98402
2018-04-30T01:49:22.000Z,98408
2018-04-30T01:50:22.000Z,98411
2018-04-30T01:52:22.000Z,98417
2018-04-30T01:53:22.000Z,98420
2018-04-30T01:55:22.000Z,98434
2018-04-30T01:57:22.000Z,98440
2018-04-30T01:59:07.000Z,98433
2018-04-30T02:00:22.000Z,98413
2018-04-30T02:01:22.000Z,98389
2018-04-30T02:03:22.000Z,98387
2018-04-30T02:05:22.000Z,98393
2018-04-30T02:07:22.000Z,98402
2018-04-30T02:09:22.000Z,98406
2018-04-30T02:11:22.000Z,98423
2018-04-30T02:13:22.000Z,98431
2018-04-30T02:15:22.000Z,98422
2018-04-30T02:16:22.000Z,98410
2018-04-30T02:18:07.000Z,98415
2018-04-30T02:19:22.000Z,98414
2018-04-30T02:21:22.000Z,98411
2018-04-30T02:22:22.000Z,98413
2018-04-30T02:23:22.000Z,98416
2018-04-30T02:25:22.000Z,98414
2018-04-30T02:26:52.000Z,98420
2018-04-30T02:28:22.000Z,98422
2018-04-30T02:30:22.000Z,98422
2018-04-30T02:32:22.000Z,98413
2018-04-30T02:34:22.000Z,98412
2018-04-30T02:37:22.000Z,98406
2018-04-30T02:38:22.000Z,98407
2018-04-30T02:40:22.000Z,98395
2018-04-30T02:42:22.000Z,98395
2018-04-30T02:43:22.000Z,98402
2018-04-30T02:45:22.000Z,98403
2018-04-30T02:47:22.000Z,98404
2018-04-30T02:48:22.000Z,98410
2018-04-30T02:49:22.000Z,98407
2018-04-30T02:51:22.000Z,98398
2018-04-30T02:52:23.000Z,98398
2018-04-30T02:53:23.000Z,98394
2018-04-30T02:55:23.000Z,98389
2018-04-30T02:57:23.000Z,98383
2018-04-30T02:59:07.000Z,98378
2018-04-30T03:38:32.000Z,98374
2018-04-30T03:40:16.000Z,98385
2018-04-30T03:41:32.000Z,98396
2018-04-30T03:43:32.000Z,98398
2018-04-30T03:44:32.000Z,98404
2018-04-30T03:45:32.000Z,98409
2018-04-30T03:46:32.000Z,98414
2018-04-30T03:48:32.000Z,98417
2018-04-30T03:50:16.000Z,98410
2018-04-30T03:51:32.000Z,98413
2018-04-30T03:52:32.000Z,98411
2018-04-30T03:54:32.000Z,98407
2018-04-30T03:55:32.000Z,98411
2018-04-30T03:57:32.000Z,98413
2018-04-30T03:59:32.000Z,98422
2018-04-30T04:00:32.000Z,98418
2018-04-30T04:01:32.000Z,98423
2018-04-30T04:03:32.000Z,98422
2018-04-30T04:04:32.000Z,98432
2018-04-30T04:06:32.000Z,98431
2018-04-30T04:08:32.000Z,98430
2018-04-30T04:10:16.000Z,98430
2018-04-30T04:12:32.000Z,98430
2018-04-30T04:14:16.000Z,98435
2018-04-30T04:15:32.000Z,98439
2018-04-30T04:17:32.000Z,98440
2018-04-30T04:19:32.000Z,98430
2018-04-30T04:21:32.000Z,98424
2018-04-30T04:23:16.000Z,98432
2018-04-30T04:24:32.000Z,98434
2018-04-30T04:26:32.000Z,98439
2018-04-30T04:28:32.000Z,98441
2018-04-30T04:29:32.000Z,98449
2018-04-30T04:31:32.000Z,98440
2018-04-30T04:33:16.000Z,98446
2018-04-30T04:34:32.000Z,98447
2018-04-30T04:36:32.000Z,98450
2018-04-30T04:37:32.000Z,98451
2018-04-30T04:38:32.000Z,98452
2018-04-30T04:40:32.000Z,98457
2018-04-30T04:42:32.000Z,98452
2018-04-30T04:43:32.000Z,98448
2018-04-30T04:47:32.000Z,98460
2018-04-30T04:49:18.000Z,98453
2018-04-30T04:51:18.000Z,98458
2018-04-30T04:53:18.000Z,98462
2018-04-30T04:55:18.000Z,98469
2018-04-30T04:57:02.000Z,98478
2018-04-30T04:58:18.000Z,98475
2018-04-30T05:00:02.000Z,98478
2018-04-30T05:01:18.000Z,98482
2018-04-30T05:02:18.000Z,98481
2018-04-30T05:03:18.000Z,98485
2018-04-30T05:05:18.000Z,98488
2018-04-30T05:06:47.000Z,98492
2018-04-30T05:08:18.000Z,98493
2018-04-30T05:10:18.000Z,98491
2018-04-30T05:12:18.000Z,98491
2018-04-30T05:14:02.000Z,98493
2018-04-30T05:15:18.000Z,98501
2018-04-30T05:16:18.000Z,98498
2018-04-30T05:18:02.000Z,98498
2018-04-30T05:19:18.000Z,98502
2018-04-30T05:20:18.000Z,98506
2018-04-30T05:22:02.000Z,98510
2018-04-30T05:23:18.000Z,98510
2018-04-30T05:25:18.000Z,98510
2018-04-30T05:27:02.000Z,98523
2018-04-30T05:28:18.000Z,98527
2018-04-30T05:30:18.000Z,98541
2018-04-30T05:32:18.000Z,98536
2018-04-30T05:33:47.000Z,98531
2018-04-30T05:35:18.000Z,98538
2018-04-30T05:36:18.000Z,98537
2018-04-30T05:38:18.000Z,98532
2018-04-30T05:40:18.000Z,98544
2018-04-30T05:42:18.000Z,98535
2018-04-30T05:44:02.000Z,98537
2018-04-30T05:45:18.000Z,98524
2018-04-30T05:46:18.000Z,98519
2018-04-30T05:48:18.000Z,98526
2018-04-30T05:49:18.000Z,98522
2018-04-30T05:51:18.000Z,98535
2018-04-30T05:52:18.000Z,98543
2018-04-30T05:54:18.000Z,98533
2018-04-30T05:56:03.000Z,98539
2018-04-30T05:57:18.000Z,98536
2018-04-30T05:59:18.000Z,98543
2018-04-30T06:01:03.000Z,98549
2018-04-30T06:02:18.000Z,98558
2018-04-30T06:04:03.000Z,98577
2018-04-30T06:05:18.000Z,98578
2018-04-30T06:07:18.000Z,98580
2018-04-30T06:08:18.000Z,98580
2018-04-30T06:10:18.000Z,98588
2018-04-30T06:11:18.000Z,98589
2018-04-30T06:13:18.000Z,98596
2018-04-30T06:15:18.000Z,98592
2018-04-30T06:17:18.000Z,98597
2018-04-30T06:18:18.000Z,98596
2018-04-30T06:20:18.000Z,98617
2018-04-30T06:22:18.000Z,98612
2018-04-30T06:24:18.000Z,98612
2018-04-30T06:26:03.000Z,98613
2018-04-30T06:27:18.000Z,98610
2018-04-30T06:28:18.000Z,98614
2018-04-30T06:30:18.000Z,98616
2018-04-30T06:31:48.000Z,98519
2018-04-30T06:33:18.000Z,98611
2018-04-30T06:34:18.000Z,98623
2018-04-30T06:36:18.000Z,98613
2018-04-30T06:38:18.000Z,98624
2018-04-30T06:39:18.000Z,98632
2018-04-30T06:41:18.000Z,98635
2018-04-30T06:43:18.000Z,98638
2018-04-30T06:45:03.000Z,98640
2018-04-30T06:46:18.000Z,98636
2018-04-30T06:47:18.000Z,98645
2018-04-30T06:49:18.000Z,98649
2018-04-30T06:50:47.000Z,98642
2018-04-30T06:52:18.000Z,98644
2018-04-30T06:54:18.000Z,98653
2018-04-30T06:55:18.000Z,98642
2018-04-30T06:56:47.000Z,98652
2018-04-30T06:58:17.000Z,98650
2018-04-30T06:59:17.000Z,98648
2018-04-30T07:00:17.000Z,98647
2018-04-30T07:01:17.000Z,98643
2018-04-30T07:03:17.000Z,98643
2018-04-30T07:04:17.000Z,98647
2018-04-30T07:06:02.000Z,98645
2018-04-30T07:07:17.000Z,98638
2018-04-30T07:08:17.000Z,98633
2018-04-30T07:09:17.000Z,98624
2018-04-30T07:10:17.000Z,98630
2018-04-30T07:12:02.000Z,98633
2018-04-30T07:13:17.000Z,98624
2018-04-30T07:15:17.000Z,98621
2018-04-30T07:17:17.000Z,98620
2018-04-30T07:18:17.000Z,98625
2018-04-30T07:19:17.000Z,98624
2018-04-30T07:21:02.000Z,98629
2018-04-30T07:22:17.000Z,98621
2018-04-30T07:26:17.000Z,98636
2018-04-30T07:28:03.000Z,98637
2018-04-30T07:29:03.000Z,98641
2018-04-30T07:30:48.000Z,98570
2018-04-30T07:33:03.000Z,98645
2018-04-30T07:34:03.000Z,98640
2018-04-30T07:36:03.000Z,98645
2018-04-30T07:37:48.000Z,98651
2018-04-30T07:39:03.000Z,98654
2018-04-30T07:41:03.000Z,98653
2018-04-30T07:43:03.000Z,98652
2018-04-30T07:44:03.000Z,98651
2018-04-30T07:46:03.000Z,98655
2018-04-30T07:48:03.000Z,98660
2018-04-30T07:50:03.000Z,98663
2018-04-30T07:52:03.000Z,98663
2018-04-30T07:54:03.000Z,98666
2018-04-30T07:56:03.000Z,98670
2018-04-30T07:58:03.000Z,98680
2018-04-30T07:59:03.000Z,98673
2018-04-30T08:01:03.000Z,98674
2018-04-30T08:02:48.000Z,98679
2018-04-30T08:05:03.000Z,98686
2018-04-30T08:07:03.000Z,98681
2018-04-30T08:08:03.000Z,98682
2018-04-30T08:09:48.000Z,98691
2018-04-30T08:14:09.000Z,98701
2018-04-30T08:16:09.000Z,98700
2018-04-30T08:18:09.000Z,98704
2018-04-30T08:19:09.000Z,98699
2018-04-30T08:21:09.000Z,98711
2018-04-30T08:23:09.000Z,98715
2018-04-30T08:24:54.000Z,98720
2018-04-30T08:26:09.000Z,98728
2018-04-30T08:27:09.000Z,98721
2018-04-30T08:28:09.000Z,98731
2018-04-30T08:30:09.000Z,98746
2018-04-30T08:31:54.000Z,98728
2018-04-30T08:33:09.000Z,98737
2018-04-30T08:34:09.000Z,98742
2018-04-30T08:36:09.000Z,98742
2018-04-30T08:37:54.000Z,98749
2018-04-30T08:39:09.000Z,98747
2018-04-30T08:40:09.000Z,98745
2018-04-30T08:42:09.000Z,98761
2018-04-30T08:44:09.000Z,98743
2018-04-30T08:46:09.000Z,98746
2018-04-30T08:48:09.000Z,98749
2018-04-30T08:50:09.000Z,98756
2018-04-30T08:52:09.000Z,98761
2018-04-30T08:54:09.000Z,98779
2018-04-30T08:56:09.000Z,98786
2018-04-30T08:58:09.000Z,98794
2018-04-30T08:59:09.000Z,98784
2018-04-30T09:01:09.000Z,98783
2018-04-30T09:02:09.000Z,98784
2018-04-30T09:04:09.000Z,98777
2018-04-30T09:05:55.000Z,98779
2018-04-30T09:06:55.000Z,98770
2018-04-30T09:08:10.000Z,98762
2018-04-30T09:10:10.000Z,98765
2018-04-30T09:12:10.000Z,98756
2018-04-30T09:13:10.000Z,98754
2018-04-30T09:15:10.000Z,98750
2018-04-30T09:17:10.000Z,98754
2018-04-30T09:18:10.000Z,98759
2018-04-30T09:20:10.000Z,98754
2018-04-30T09:21:10.000Z,98752
2018-04-30T09:23:10.000Z,98756
2018-04-30T09:24:10.000Z,98749
2018-04-30T09:26:10.000Z,98762
2018-04-30T09:28:10.000Z,98750
2018-04-30T09:30:10.000Z,98752
2018-04-30T09:32:10.000Z,98753
2018-04-30T09:34:10.000Z,98754
2018-04-30T09:36:10.000Z,98759
2018-04-30T09:37:10.000Z,98768
2018-04-30T09:39:10.000Z,98771
2018-04-30T09:41:10.000Z,98779
2018-04-30T09:42:10.000Z,98781
2018-04-30T09:43:55.000Z,98783
2018-04-30T09:45:10.000Z,98797
2018-04-30T09:46:10.000Z,98793
2018-04-30T09:48:10.000Z,98798
2018-04-30T09:50:10.000Z,98805
2018-04-30T09:51:10.000Z,98805
2018-04-30T09:53:10.000Z,98799
2018-04-30T09:54:10.000Z,98796
2018-04-30T09:56:10.000Z,98804
2018-04-30T09:58:10.000Z,98800
2018-04-30T09:59:55.000Z,98794
2018-04-30T10:01:10.000Z,98794
2018-04-30T10:03:10.000Z,98797
2018-04-30T10:05:10.000Z,98787
2018-04-30T10:06:10.000Z,98788
2018-04-30T10:07:10.000Z,98795
2018-04-30T10:09:10.000Z,98792
2018-04-30T10:11:10.000Z,98796
2018-04-30T10:13:10.000Z,98793
2018-04-30T10:14:55.000Z,98790
2018-04-30T10:16:10.000Z,98788
2018-04-30T10:18:10.000Z,98789
2018-04-30T10:19:55.000Z,98775
2018-04-30T10:21:10.000Z,98773
2018-04-30T10:22:55.000Z,98772
2018-04-30T10:24:10.000Z,98768
2018-04-30T10:25:10.000Z,98770
2018-04-30T10:27:10.000Z,98768
2018-04-30T10:29:10.000Z,98770
2018-04-30T10:31:10.000Z,98759
2018-04-30T10:33:10.000Z,98757
2018-04-30T10:34:10.000Z,98748
2018-04-30T10:36:10.000Z,98744
2018-04-30T10:38:10.000Z,98743
2018-04-30T10:40:10.000Z,98736
2018-04-30T10:42:10.000Z,98736
2018-04-30T10:43:55.000Z,98728
2018-04-30T10:45:10.000Z,98724
2018-04-30T10:47:10.000Z,98718
2018-04-30T10:49:10.000Z,98721
2018-04-30T10:50:10.000Z,98716
2018-04-30T10:52:10.000Z,98721
2018-04-30T10:53:10.000Z,98713
2018-04-30T10:55:10.000Z,98724
2018-04-30T10:56:10.000Z,98722
2018-04-30T10:58:10.000Z,98727
2018-04-30T11:00:10.000Z,98733
2018-04-30T11:02:10.000Z,98728
2018-04-30T11:04:10.000Z,98736
2018-04-30T11:05:10.000Z,98761
2018-04-30T11:06:55.000Z,98737
2018-04-30T11:08:10.000Z,98734
2018-04-30T11:10:10.000Z,98741
2018-04-30T11:11:10.000Z,98732
2018-04-30T11:13:10.000Z,98744
2018-04-30T11:15:10.000Z,98731
2018-04-30T11:16:10.000Z,98744
2018-04-30T11:18:10.000Z,98736
2018-04-30T11:19:10.000Z,98750
2018-04-30T11:20:55.000Z,98750
2018-04-30T11:22:10.000Z,98758
2018-04-30T11:24:10.000Z,98751
2018-04-30T11:26:10.000Z,98753
2018-04-30T11:28:10.000Z,98755
2018-04-30T11:30:10.000Z,98761
2018-04-30T11:31:55.000Z,98767
2018-04-30T11:33:10.000Z,98759
2018-04-30T11:35:10.000Z,98768
2018-04-30T11:36:55.000Z,98768
2018-04-30T11:38:10.000Z,98776
2018-04-30T11:39:10.000Z,98770
2018-04-30T11:41:10.000Z,98771
2018-04-30T11:43:10.000Z,98782
2018-04-30T11:44:10.000Z,98784
2018-04-30T11:45:10.000Z,98781
2018-04-30T11:47:10.000Z,98805
2018-04-30T11:49:10.000Z,98796
2018-04-30T11:50:55.000Z,98792
2018-04-30T11:52:10.000Z,98804
2018-04-30T11:54:10.000Z,98808
2018-04-30T11:55:10.000Z,98830
2018-04-30T11:57:10.000Z,98839
2018-04-30T11:58:10.000Z,98814
2018-04-30T12:00:10.000Z,98806
2018-04-30T12:01:40.000Z,98806
2018-04-30T12:03:10.000Z,98803
2018-04-30T12:04:10.000Z,98816
2018-04-30T12:06:10.000Z,98814
2018-04-30T12:07:10.000Z,98803
2018-04-30T12:09:10.000Z,98820
2018-04-30T12:11:10.000Z,98813
2018-04-30T12:12:40.000Z,98792
2018-04-30T12:14:10.000Z,98801
2018-04-30T12:16:10.000Z,98801
2018-04-30T12:18:10.000Z,98793
2018-04-30T12:19:10.000Z,98795
2018-04-30T12:20:10.000Z,98770
2018-04-30T12:21:10.000Z,98780
2018-04-30T12:23:10.000Z,98788
2018-04-30T12:25:10.000Z,98793
2018-04-30T12:27:10.000Z,98803
2018-04-30T12:29:10.000Z,98783
2018-04-30T12:30:10.000Z,98793
2018-04-30T12:32:10.000Z,98782
2018-04-30T12:34:10.000Z,98787
2018-04-30T12:35:10.000Z,98774
2018-04-30T12:37:10.000Z,98793
2018-04-30T12:38:10.000Z,98782
2018-04-30T12:39:10.000Z,98774
2018-04-30T12:40:55.000Z,98773
2018-04-30T12:42:10.000Z,98770
2018-04-30T12:43:10.000Z,98773
2018-04-30T12:45:10.000Z,98766
2018-04-30T12:47:10.000Z,98762
2018-04-30T12:48:10.000Z,98770
2018-04-30T12:50:10.000Z,98771
2018-04-30T12:52:10.000Z,98783
2018-04-30T12:54:10.000Z,98783
2018-04-30T12:56:10.000Z,98784
2018-04-30T12:58:10.000Z,98795
2018-04-30T13:00:10.000Z,98800
2018-04-30T13:01:10.000Z,98788
2018-04-30T13:03:10.000Z,98782
2018-04-30T13:04:10.000Z,98811
2018-04-30T13:06:10.000Z,98802
2018-04-30T13:08:10.000Z,98784
2018-04-30T13:09:10.000Z,98784
2018-04-30T13:11:10.000Z,98765
2018-04-30T13:12:55.000Z,98776
2018-04-30T13:14:10.000Z,98776
2018-04-30T13:15:10.000Z,98763
2018-04-30T13:17:10.000Z,98781
2018-04-30T13:19:10.000Z,98777
2018-04-30T13:20:10.000Z,98796
2018-04-30T13:22:10.000Z,98800
2018-04-30T13:23:54.000Z,98814
2018-04-30T13:25:10.000Z,98809
2018-04-30T13:26:54.000Z,98808
2018-04-30T13:28:10.000Z,98813
2018-04-30T13:30:10.000Z,98811
2018-04-30T13:32:10.000Z,98799
2018-04-30T13:33:39.000Z,98805
2018-04-30T13:35:10.000Z,98808
2018-04-30T13:36:54.000Z,98801
2018-04-30T13:38:10.000Z,98821
2018-04-30T13:40:10.000Z,98816
2018-04-30T13:41:10.000Z,98818
2018-04-30T13:42:10.000Z,98814
2018-04-30T13:44:10.000Z,98819
2018-04-30T13:45:10.000Z,98808
2018-04-30T13:47:10.000Z,98817
2018-04-30T13:49:10.000Z,98815
2018-04-30T13:50:39.000Z,98822
2018-04-30T13:52:10.000Z,98828
2018-04-30T13:53:10.000Z,98837
2018-04-30T13:54:10.000Z,98830
2018-04-30T13:56:10.000Z,98827
2018-04-30T13:58:10.000Z,98832
2018-04-30T13:59:10.000Z,98833
2018-04-30T14:01:10.000Z,98824
2018-04-30T14:02:10.000Z,98834
2018-04-30T14:04:10.000Z,98842
2018-04-30T14:05:10.000Z,98832
2018-04-30T14:06:10.000Z,98822
2018-04-30T14:07:54.000Z,98826
2018-04-30T14:09:10.000Z,98818
2018-04-30T14:10:10.000Z,98823
2018-04-30T14:12:10.000Z,98835
2018-04-30T14:13:10.000Z,98846
2018-04-30T14:14:54.000Z,98885
2018-04-30T14:16:10.000Z,98888
2018-04-30T14:18:10.000Z,98903
2018-04-30T14:19:10.000Z,98896
2018-04-30T14:20:54.000Z,98900
2018-04-30T14:22:10.000Z,98881
2018-04-30T14:24:10.000Z,98881
2018-04-30T14:26:10.000Z,98868
2018-04-30T14:27:10.000Z,98882
2018-04-30T14:29:10.000Z,98871
2018-04-30T14:31:10.000Z,98878
2018-04-30T14:32:10.000Z,98877
2018-04-30T14:33:55.000Z,98882
2018-04-30T14:35:10.000Z,98880
2018-04-30T14:36:10.000Z,98884
2018-04-30T14:38:10.000Z,98883
2018-04-30T14:39:10.000Z,98886
2018-04-30T14:41:10.000Z,98890
2018-04-30T14:42:10.000Z,98886
2018-04-30T14:44:10.000Z,98878
2018-04-30T14:45:10.000Z,98885
2018-04-30T14:46:10.000Z,98893
2018-04-30T14:48:10.000Z,98886
2018-04-30T14:50:10.000Z,98905
2018-04-30T14:51:10.000Z,98880
2018-04-30T14:52:55.000Z,98881
2018-04-30T14:54:10.000Z,98872
2018-04-30T14:55:55.000Z,98885
2018-04-30T14:57:10.000Z,98880
2018-04-30T14:58:10.000Z,98890
2018-04-30T15:00:10.000Z,98884
2018-04-30T15:01:10.000Z,98880
2018-04-30T15:03:10.000Z,98884
2018-04-30T15:05:10.000Z,98896
2018-04-30T15:06:10.000Z,98884
2018-04-30T15:08:10.000Z,98894
2018-04-30T15:10:10.000Z,98889
2018-04-30T15:11:10.000Z,98897
2018-04-30T15:12:10.000Z,98911
2018-04-30T15:13:10.000Z,98882
2018-04-30T15:15:10.000Z,98882
2018-04-30T15:16:10.000Z,98888
2018-04-30T15:18:10.000Z,98884
2018-04-30T15:20:10.000Z,98890
2018-04-30T15:21:10.000Z,98894
2018-04-30T15:23:10.000Z,98887
2018-04-30T15:24:10.000Z,98897
2018-04-30T15:25:10.000Z,98880
2018-04-30T15:27:10.000Z,98879
2018-04-30T15:29:10.000Z,98882
2018-04-30T15:30:10.000Z,98887
2018-04-30T15:31:10.000Z,98884
2018-04-30T15:33:10.000Z,98885
2018-04-30T15:35:10.000Z,98880
2018-04-30T15:36:10.000Z,98899
2018-04-30T15:37:55.000Z,98876
2018-04-30T15:39:10.000Z,98875
2018-04-30T15:40:10.000Z,98877
2018-04-30T15:42:10.000Z,98868
2018-04-30T15:43:10.000Z,98868
2018-04-30T15:44:55.000Z,98863
2018-04-30T15:46:10.000Z,98871
2018-04-30T15:47:10.000Z,98875
2018-04-30T15:49:10.000Z,98876
2018-04-30T15:50:10.000Z,98873
2018-04-30T15:52:10.000Z,98870
2018-04-30T15:53:10.000Z,98876
2018-04-30T15:55:10.000Z,98874
2018-04-30T15:56:55.000Z,98876
2018-04-30T15:58:10.000Z,98871
2018-04-30T16:00:10.000Z,98877
2018-04-30T16:02:10.000Z,98876
2018-04-30T16:03:10.000Z,98873
2018-04-30T16:05:10.000Z,98877
2018-04-30T16:07:10.000Z,98872
2018-04-30T16:08:55.000Z,98859
2018-04-30T16:10:10.000Z,98873
2018-04-30T16:11:10.000Z,98874
2018-04-30T16:12:10.000Z,98875
2018-04-30T16:14:10.000Z,98862
2018-04-30T16:16:10.000Z,98864
2018-04-30T16:18:10.000Z,98874
2018-04-30T16:19:10.000Z,98876
2018-04-30T16:21:10.000Z,98868
2018-04-30T16:23:10.000Z,98908
2018-04-30T16:25:10.000Z,98870
2018-04-30T16:27:10.000Z,98873
2018-04-30T16:28:40.000Z,98875
2018-04-30T16:30:10.000Z,98867
2018-04-30T16:31:10.000Z,98870
2018-04-30T16:33:10.000Z,98861
2018-04-30T16:34:10.000Z,98868
2018-04-30T16:36:10.000Z,98858
2018-04-30T16:37:10.000Z,98859
2018-04-30T16:38:10.000Z,98859
2018-04-30T16:40:10.000Z,98851
2018-04-30T16:41:55.000Z,98842
2018-04-30T16:43:10.000Z,98838
2018-04-30T16:45:10.000Z,98854
2018-04-30T16:46:10.000Z,98849
2018-04-30T16:47:55.000Z,98847
2018-04-30T16:49:10.000Z,98856
2018-04-30T16:50:10.000Z,98845
2018-04-30T16:52:10.000Z,98845
2018-04-30T16:54:10.000Z,98846
2018-04-30T16:56:10.000Z,98835
2018-04-30T16:58:10.000Z,98841
2018-04-30T16:59:10.000Z,98845
2018-04-30T17:01:10.000Z,98846
2018-04-30T17:02:10.000Z,98842
2018-04-30T17:04:10.000Z,98850
2018-04-30T17:06:10.000Z,98840
2018-04-30T17:08:10.000Z,98845
2018-04-30T17:10:10.000Z,98833
2018-04-30T17:12:10.000Z,98834
2018-04-30T17:14:10.000Z,98838
2018-04-30T17:15:10.000Z,98828
2018-04-30T17:17:10.000Z,98837
2018-04-30T17:18:55.000Z,98841
2018-04-30T17:20:10.000Z,98843
2018-04-30T17:21:10.000Z,98849
2018-04-30T17:23:10.000Z,98841
2018-04-30T17:25:10.000Z,98849
2018-04-30T17:26:10.000Z,98847
2018-04-30T17:28:10.000Z,98845
2018-04-30T17:29:10.000Z,98839
2018-04-30T17:31:10.000Z,98840
2018-04-30T17:32:10.000Z,98835
2018-04-30T17:34:10.000Z,98842
2018-04-30T17:36:10.000Z,98839
2018-04-30T17:38:10.000Z,98843
2018-04-30T17:40:10.000Z,98841
2018-04-30T17:42:10.000Z,98832
2018-04-30T17:44:10.000Z,98830
2018-04-30T17:45:55.000Z,98826
2018-04-30T17:47:10.000Z,98823
2018-04-30T17:49:10.000Z,98817
2018-04-30T17:51:10.000Z,98838
2018-04-30T17:53:10.000Z,98843
2018-04-30T17:54:10.000Z,98839
2018-04-30T17:56:10.000Z,98838
2018-04-30T17:57:10.000Z,98835
2018-04-30T17:58:10.000Z,98843
2018-04-30T18:00:10.000Z,98846
2018-04-30T18:01:55.000Z,98836
2018-04-30T18:03:10.000Z,98838
2018-04-30T18:04:10.000Z,98841
2018-04-30T18:06:10.000Z,98850
2018-04-30T18:07:10.000Z,98844
2018-04-30T18:08:10.000Z,98848
2018-04-30T18:10:10.000Z,98845
2018-04-30T18:12:10.000Z,98853
2018-04-30T18:13:10.000Z,98847
2018-04-30T18:15:10.000Z,98853
2018-04-30T18:17:10.000Z,98849
2018-04-30T18:18:10.000Z,98853
2018-04-30T18:19:10.000Z,98848
2018-04-30T18:21:10.000Z,98853
2018-04-30T18:22:10.000Z,98853
2018-04-30T18:24:10.000Z,98849
2018-04-30T18:25:10.000Z,98840
2018-04-30T18:27:10.000Z,98833
2018-04-30T18:29:10.000Z,98838
2018-04-30T18:31:10.000Z,98839
2018-04-30T18:33:10.000Z,98841
2018-04-30T18:35:10.000Z,98846
2018-04-30T18:36:10.000Z,98851
2018-04-30T18:37:10.000Z,98839
2018-04-30T18:39:10.000Z,98836
2018-04-30T18:41:10.000Z,98838
2018-04-30T18:43:10.000Z,98840
2018-04-30T18:44:10.000Z,98844
2018-04-30T18:45:10.000Z,98838
2018-04-30T18:47:10.000Z,98844
2018-04-30T18:49:10.000Z,98838
2018-04-30T18:51:10.000Z,98849
2018-04-30T18:52:10.000Z,98840
2018-04-30T18:54:10.000Z,98828
2018-04-30T18:56:10.000Z,98829
2018-04-30T18:57:10.000Z,98834
2018-04-30T18:58:10.000Z,98835
2018-04-30T19:00:10.000Z,98835
2018-04-30T19:01:10.000Z,98835
2018-04-30T19:03:10.000Z,98834
2018-04-30T19:05:10.000Z,98829
2018-04-30T19:06:55.000Z,98823
2018-04-30T19:08:10.000Z,98828
2018-04-30T19:09:10.000Z,98810
2018-04-30T19:10:10.000Z,98822
2018-04-30T19:12:10.000Z,98821
2018-04-30T19:13:10.000Z,98837
2018-04-30T19:14:10.000Z,98835
2018-04-30T19:16:10.000Z,98827
2018-04-30T19:17:10.000Z,98829
2018-04-30T19:19:10.000Z,98821
2018-04-30T19:21:10.000Z,98818
2018-04-30T19:22:10.000Z,98817
2018-04-30T19:23:10.000Z,98820
2018-04-30T19:25:10.000Z,98811
2018-04-30T19:26:10.000Z,98803
2018-04-30T19:28:10.000Z,98807
2018-04-30T19:29:10.000Z,98811
2018-04-30T19:31:10.000Z,98813
2018-04-30T19:33:10.000Z,98810
2018-04-30T19:34:10.000Z,98812
2018-04-30T19:35:55.000Z,98798
2018-04-30T19:37:10.000Z,98793
2018-04-30T19:38:10.000Z,98802
2018-04-30T19:40:10.000Z,98805
2018-04-30T19:42:10.000Z,98794
2018-04-30T19:44:10.000Z,98801
2018-04-30T19:46:10.000Z,98815
2018-04-30T19:47:10.000Z,98789
2018-04-30T19:49:10.000Z,98808
2018-04-30T19:51:10.000Z,98801
2018-04-30T19:52:10.000Z,98797
2018-04-30T19:53:55.000Z,98807
2018-04-30T19:55:10.000Z,98807
2018-04-30T19:56:55.000Z,98812
2018-04-30T19:58:10.000Z,98813
2018-04-30T19:59:10.000Z,98810
2018-04-30T20:00:10.000Z,98814
2018-04-30T20:02:10.000Z,98804
2018-04-30T20:04:10.000Z,98800
2018-04-30T20:05:55.000Z,98803
2018-04-30T20:07:10.000Z,98788
2018-04-30T20:08:55.000Z,98789
2018-04-30T20:10:10.000Z,98782
2018-04-30T20:11:10.000Z,98795
2018-04-30T20:13:10.000Z,98794
2018-04-30T20:14:10.000Z,98793
2018-04-30T20:16:10.000Z,98810
2018-04-30T20:17:55.000Z,98806
2018-04-30T20:19:10.000Z,98814
2018-04-30T20:21:10.000Z,98812
2018-04-30T20:23:10.000Z,98796
2018-04-30T20:25:10.000Z,98811
2018-04-30T20:26:10.000Z,98798
2018-04-30T20:27:55.000Z,98814
2018-04-30T20:29:10.000Z,98835
2018-04-30T20:31:10.000Z,98815
2018-04-30T20:32:10.000Z,98825
2018-04-30T20:34:10.000Z,98819
2018-04-30T20:36:10.000Z,98819
2018-04-30T20:37:10.000Z,98823
2018-04-30T20:39:10.000Z,98814
2018-04-30T20:40:10.000Z,98798
2018-04-30T20:42:10.000Z,98813
2018-04-30T20:44:10.000Z,98810
2018-04-30T20:46:10.000Z,98815
2018-04-30T20:47:55.000Z,98815
2018-04-30T20:49:10.000Z,98811
2018-04-30T20:50:10.000Z,98816
2018-04-30T20:52:10.000Z,98811
2018-04-30T20:54:10.000Z,98813
2018-04-30T20:56:10.000Z,98823
2018-04-30T20:58:10.000Z,98817
2018-04-30T20:59:10.000Z,98817
2018-04-30T21:01:10.000Z,98822
2018-04-30T21:03:10.000Z,98820
2018-04-30T21:04:55.000Z,98823
2018-04-30T21:06:10.000Z,98821
2018-04-30T21:08:10.000Z,98828
2018-04-30T21:10:10.000Z,98819
2018-04-30T21:12:10.000Z,98837
2018-04-30T21:13:10.000Z,98821
2018-04-30T21:15:10.000Z,98818
2018-04-30T21:17:10.000Z,98825
2018-04-30T21:19:10.000Z,98821
2018-04-30T21:21:10.000Z,98839
2018-04-30T21:23:10.000Z,98829